• Join FlightAware (Why Join?)
  • Login
  • US Flag 
11:40AM EST


 

Airport Tracker/Info


-or-


 

Live Flight TrackerFlight Track Log ✈ AAL1660 ✈ 21-May-2012 ✈ KOKC - KDFW

Flight Track Log - Related Links

Times and Time Zones

All times are in EDT time to prevent confusion due to time zone crossing. See the AAL1660 flight status page for this flight to view local times or setup timezone preferences in your user account.

Time Position Orientation Groundspeed Altitude Reporting Facility
EDT Latitude Longitude Course Direction KTS MPH feet Rate Location/Type
07:12AM 35.3399 -97.6000 354° North  Level FlightAware Approximate
07:13AM 35.4103 -97.6097 217° Southwest 254 292 2,100  Level Fort Worth Center
07:18AM 35.2097 -97.7947 181° South 295 339 13,200 2,220 Climbing Fort Worth Center
07:19AM 35.1158 -97.7967 173° South 332 382 15,300 2,220 Climbing Fort Worth Center
07:20AM 35.0031 -97.7786 171° South 388 447 17,700 2,160 Climbing Fort Worth Center
07:21AM 34.8864 -97.7553 168° South 410 472 19,700 1,920 Climbing Fort Worth Center
07:22AM 34.7697 -97.7244 167° South 422 486 21,600 1,620 Climbing Fort Worth Center
07:23AM 34.6467 -97.6886 166° South 435 501 23,000 660 Climbing Fort Worth Center
07:24AM 34.5300 -97.6531 165° South 435 501 23,000  Level Fort Worth Center
07:25AM 34.4153 -97.6150 159° South 435 501 23,000  Level Fort Worth Center
07:26AM 34.3067 -97.5644 155° Southeast 425 489 23,000  Level Fort Worth Center
07:27AM 34.1878 -97.4964 153° Southeast 425 489 23,000  Level Fort Worth Center
07:28AM 34.0836 -97.4336 187° South 425 489 23,000 -420 Level Fort Worth Center
07:29AM 33.9708 -97.4511 207° Southwest 398 458 22,200 -1,020 Descending Fort Worth Center
07:30AM 33.8686 -97.5136 209° Southwest 382 440 21,000 -1,560 Descending Fort Worth Center
07:31AM 33.7767 -97.5758 209° Southwest 387 445 19,100 -1,980 Descending Fort Worth Center
07:31AM 33.7172 -97.6161 205° Southwest 362 417 17,700 -1,860 Descending FAA TRACON SMA TRACON (SMA)
07:32AM 33.6528 -97.6519 175° South 360 414 16,500 -2,040 Descending FAA TRACON SMA TRACON (SMA)
07:33AM 33.5836 -97.6442 178° South 364 419 15,000 -2,100 Descending FAA TRACON SMA TRACON (SMA)
07:33AM 33.5219 -97.6422 178° South 361 415 13,800 -1,800 Descending FAA TRACON SMA TRACON (SMA)
07:34AM 33.4547 -97.6389 158° South 352 405 12,700 -1,200 Descending FAA TRACON SMA TRACON (SMA)
07:35AM 33.3917 -97.6078 147° Southeast 353 406 12,200 -1,080 Descending FAA TRACON SMA TRACON (SMA)
07:35AM 33.3358 -97.5647 146° Southeast 344 396 11,300 -1,020 Descending FAA TRACON SMA TRACON (SMA)
07:36AM 33.2900 -97.5283 138° Southeast 322 371 10,900 -300 Descending FAA TRACON SMA TRACON (SMA)
07:37AM 33.2475 -97.4828 135° Southeast 296 341 10,900  Level FAA TRACON SMA TRACON (SMA)
07:37AM 33.2067 -97.4347 135° Southeast 297 342 10,900  Level FAA TRACON SMA TRACON (SMA)
07:38AM 33.1703 -97.3919 138° Southeast 297 342 10,900  Level FAA TRACON SMA TRACON (SMA)
07:39AM 33.1272 -97.3456 133° Southeast 302 348 10,900  Level FAA TRACON SMA TRACON (SMA)
07:39AM 33.0881 -97.2961 135° Southeast 300 345 10,900  Level FAA TRACON SMA TRACON (SMA)
07:40AM 33.0519 -97.2531 137° Southeast 301 346 10,900  Level FAA TRACON SMA TRACON (SMA)
07:41AM 33.0106 -97.2064 147° Southeast 296 341 10,900 -120 Level FAA TRACON SMA TRACON (SMA)
07:41AM 32.9675 -97.1733 181° South 278 320 10,800 -780 Descending FAA TRACON SMA TRACON (SMA)
07:42AM 32.9219 -97.1747 178° South 261 300 9,900 -1,500 Descending FAA TRACON SMA TRACON (SMA)
07:43AM 32.8733 -97.1731 176° South 252 290 8,700 -1,800 Descending FAA TRACON SMA TRACON (SMA)
07:43AM 32.8261 -97.1689 165° South 248 285 7,500 -1,800 Descending FAA TRACON SMA TRACON (SMA)
07:44AM 32.7819 -97.1550 162° South 233 268 6,400 -1,380 Descending FAA TRACON SMA TRACON (SMA)
07:45AM 32.7431 -97.1397 111° Southeast 241 277 5,700 -1,080 Descending FAA TRACON SMA TRACON (SMA)
07:45AM 32.7272 -97.0914 81° East 239 275 5,000 -720 Descending FAA TRACON SMA TRACON (SMA)
07:46AM 32.7339 -97.0431 26° Northeast 223 257 4,800 -1,320 Descending FAA TRACON SMA TRACON (SMA)
07:47AM 32.7667 -97.0244 26° Northeast 217 250 3,300 -2,340 Descending FAA TRACON SMA TRACON (SMA)